Terminal Aerodrome Forecast
Issued by NWS Central Illinois

Home | Current Version | Previous Version | Text Only | Print | Product List | Glossary On
Versions: 1 2 3 4 5 6 7 8 9 10 11 12 13 14 15 16 17 18 19
000
FTUS43 KILX 192342
TAFPIA
TAF
KPIA 192342Z 2000/2024 15006KT P6SM FEW250
     FM200500 15006KT 1 1/2SM BR SCT035
     FM200600 15006KT 1/4SM FG VV002
     FM201500 15010KT 3SM BR OVC007
     FM201800 16012G22KT P6SM SCT007 BKN150
     FM202100 17011G21KT P6SM VCSH OVC050=

USA.gov is the U.S. government's official web portal to all federal, state and local government web resources and services.